Time;durP1;ratioP1;P1;durP2;ratioP2;P2;SDS_P1;SDS_P2;PMS_P1;PMS_P2;Temp;Humidity;BMP_temperature;BMP_pressure;BME280_temperature;BME280_humidity;BME280_pressure;Samples;Min_cycle;Max_cycle;Signal;HPM_P1;HPM_P2
2023/05/23 00:01:39;;;;;;;1.50;0.85;;;;;;;17.48;67.41;101140.72;5181053;28;20053;-91
2023/05/23 00:04:31;;;;;;;1.35;1.25;;;;;;;17.54;66.76;101128.94;5187298;28;20048;-90
2023/05/23 00:07:22;;;;;;;0.70;0.70;;;;;;;17.86;65.34;101135.28;5193851;28;20022;-90
2023/05/23 00:10:13;;;;;;;0.75;0.75;;;;;;;17.70;66.23;101135.19;5195214;28;20033;-90
2023/05/23 00:13:04;;;;;;;1.00;1.00;;;;;;;17.77;65.51;101136.59;5176247;28;20448;-90
2023/05/23 00:15:55;;;;;;;2.88;0.52;;;;;;;17.65;66.48;101136.38;5185788;28;20077;-91
2023/05/23 00:18:46;;;;;;;2.30;0.90;;;;;;;17.29;68.95;101138.13;5206440;28;20588;-91
2023/05/23 00:21:37;;;;;;;1.35;1.25;;;;;;;17.98;64.98;101138.25;5198401;28;20039;-91
2023/05/23 00:24:28;;;;;;;1.08;0.98;;;;;;;17.51;67.93;101137.94;5187113;28;20041;-91
2023/05/23 00:27:18;;;;;;;0.75;0.75;;;;;;;17.96;64.76;101137.50;5191904;28;20084;-90
2023/05/23 00:30:10;;;;;;;2.55;1.50;;;;;;;17.80;66.31;101145.34;5177401;28;20061;-90
2023/05/23 00:33:00;;;;;;;1.90;1.38;;;;;;;18.08;64.59;101135.09;5192825;28;20034;-91
2023/05/23 00:35:51;;;;;;;1.75;1.25;;;;;;;18.02;64.46;101145.16;5188126;28;20030;-90
2023/05/23 00:38:44;;;;;;;0.60;0.60;;;;;;;18.19;63.55;101145.13;5175247;28;20029;-90
2023/05/23 00:41:36;;;;;;;0.70;0.70;;;;;;;18.22;63.58;101142.28;5182352;28;20093;-91
2023/05/23 00:44:27;;;;;;;20.63;1.55;;;;;;;17.92;65.25;101140.28;5177506;28;20124;-90
2023/05/23 00:47:18;;;;;;;0.38;0.38;;;;;;;18.29;63.55;101142.00;5184416;28;20161;-89
2023/05/23 00:50:13;;;;;;;3.10;0.85;;;;;;;18.36;63.90;101136.25;5177236;28;20030;-91
2023/05/23 00:53:04;;;;;;;0.60;0.60;;;;;;;17.96;66.13;101156.94;5189590;28;20029;-91
2023/05/23 00:55:55;;;;;;;1.40;1.30;;;;;;;17.69;68.04;101162.66;5186457;28;20092;-91
2023/05/23 00:58:46;;;;;;;0.70;0.70;;;;;;;17.70;67.87;101163.53;5182349;28;20037;-91
2023/05/23 01:01:37;;;;;;;1.63;1.52;;;;;;;17.52;68.38;101174.13;5192027;28;20037;-91
2023/05/23 01:04:28;;;;;;;0.95;0.73;;;;;;;17.88;66.79;101173.25;5177022;28;20087;-90
2023/05/23 01:07:20;;;;;;;2.53;1.40;;;;;;;18.12;65.75;101175.59;5193666;28;20022;-91
2023/05/23 01:10:12;;;;;;;0.75;0.75;;;;;;;17.74;67.55;101183.66;5187679;28;20049;-90
2023/05/23 01:13:16;;;;;;;1.05;1.02;;;;;;;17.93;65.77;101176.50;5176495;28;20033;-89
2023/05/23 01:16:15;;;;;;;2.33;1.27;;;;;;;17.98;65.12;101178.09;5189493;28;20076;-91
2023/05/23 01:19:28;;;;;;;0.20;0.20;;;;;;;17.74;64.99;101187.19;5179197;28;20065;-91
2023/05/23 01:22:49;;;;;;;1.92;1.17;;;;;;;17.10;66.39;101173.50;5176460;28;20672;-91
2023/05/23 01:26:22;;;;;;;0.70;0.70;;;;;;;17.35;65.14;101176.75;5178999;28;20101;-88
2023/05/23 01:29:21;;;;;;;4.05;1.73;;;;;;;17.17;65.21;101182.00;5193074;28;20827;-90
2023/05/23 01:32:14;;;;;;;0.63;0.63;;;;;;;17.20;65.55;101184.50;5199984;28;20033;-90
2023/05/23 01:35:06;;;;;;;0.38;0.38;;;;;;;17.05;66.19;101188.72;5178316;28;20056;-90
2023/05/23 01:37:57;;;;;;;0.40;0.40;;;;;;;17.39;64.62;101184.47;5188991;28;20049;-90
2023/05/23 01:40:47;;;;;;;0.40;0.40;;;;;;;16.85;65.92;101189.63;5171406;28;20112;-90
2023/05/23 01:43:39;;;;;;;0.13;0.13;;;;;;;16.99;65.82;101187.22;5176999;28;20045;-90
2023/05/23 01:46:31;;;;;;;0.47;0.47;;;;;;;17.10;65.45;101188.53;5176352;28;20112;-91
2023/05/23 01:49:23;;;;;;;1.00;1.00;;;;;;;16.88;66.76;101193.94;5173758;28;20038;-90
2023/05/23 01:52:14;;;;;;;0.50;0.50;;;;;;;17.07;65.79;101188.66;5182970;28;20066;-91
2023/05/23 01:55:08;;;;;;;0.47;0.47;;;;;;;16.80;67.45;101195.13;5206146;28;20040;-90
2023/05/23 01:58:00;;;;;;;0.50;0.50;;;;;;;16.65;68.12;101191.38;5181290;28;20389;-91
2023/05/23 02:00:51;;;;;;;2.28;0.88;;;;;;;16.33;69.48;101184.91;5188158;28;20034;-90
2023/05/23 02:03:42;;;;;;;0.40;0.40;;;;;;;16.74;67.52;101186.59;5180479;28;20052;-91
2023/05/23 02:06:33;;;;;;;0.88;0.88;;;;;;;16.89;67.19;101190.34;5182099;28;20630;-90
2023/05/23 02:09:23;;;;;;;1.00;0.88;;;;;;;16.87;67.58;101186.91;5179257;28;20033;-90
2023/05/23 02:12:14;;;;;;;0.40;0.40;;;;;;;16.92;67.20;101185.75;5188257;28;20170;-90
2023/05/23 02:15:06;;;;;;;0.88;0.88;;;;;;;16.75;68.03;101193.63;5184354;28;20117;-91
2023/05/23 02:17:57;;;;;;;0.47;0.47;;;;;;;16.78;68.17;101193.50;5182211;28;20387;-90
2023/05/23 02:20:48;;;;;;;0.70;0.70;;;;;;;16.89;67.64;101199.19;5205854;28;20029;-91
2023/05/23 02:23:38;;;;;;;0.45;0.45;;;;;;;16.79;68.40;101187.28;5189914;28;20443;-91
2023/05/23 02:26:29;;;;;;;0.82;0.82;;;;;;;16.40;69.87;101198.72;5191860;28;20037;-90
2023/05/23 02:29:20;;;;;;;0.45;0.45;;;;;;;16.77;68.24;101197.06;5183661;28;20036;-90
2023/05/23 02:32:11;;;;;;;0.55;0.55;;;;;;;16.66;68.96;101201.06;5178905;28;20411;-90
2023/05/23 02:35:03;;;;;;;0.70;0.70;;;;;;;16.49;69.39;101201.81;5178649;28;20033;-89
2023/05/23 02:37:54;;;;;;;0.82;0.82;;;;;;;16.59;68.60;101202.25;5174819;28;20038;-90
2023/05/23 02:40:44;;;;;;;0.40;0.40;;;;;;;16.78;67.65;101204.09;5177194;28;20048;-90
2023/05/23 02:43:35;;;;;;;2.38;1.15;;;;;;;16.24;69.84;101203.81;5185702;28;20037;-90
2023/05/23 02:46:26;;;;;;;1.13;0.98;;;;;;;16.60;68.30;101209.28;5170944;28;20034;-91
2023/05/23 02:49:17;;;;;;;0.70;0.70;;;;;;;16.62;68.18;101210.09;5182236;28;20044;-90
2023/05/23 02:52:15;;;;;;;0.88;0.70;;;;;;;16.34;69.26;101218.41;5179540;28;20026;-90
2023/05/23 02:55:07;;;;;;;2.30;1.15;;;;;;;16.30;69.74;101220.31;5183204;28;20025;-90
2023/05/23 02:57:58;;;;;;;1.13;0.52;;;;;;;16.15;70.39;101220.97;5186210;28;20061;-89
2023/05/23 03:00:49;;;;;;;0.75;0.75;;;;;;;16.19;69.90;101226.06;5183421;28;20057;-90
2023/05/23 03:03:40;;;;;;;0.88;0.88;;;;;;;15.94;71.42;101223.59;5184191;28;20548;-90
2023/05/23 03:06:32;;;;;;;0.70;0.70;;;;;;;16.25;69.71;101218.78;5175007;28;20378;-89
2023/05/23 03:09:23;;;;;;;0.50;0.50;;;;;;;16.13;70.23;101228.13;5181063;28;20096;-89
2023/05/23 03:12:14;;;;;;;0.52;0.52;;;;;;;16.26;69.75;101224.00;5185189;28;20116;-89
2023/05/23 03:15:05;;;;;;;0.75;0.75;;;;;;;16.24;70.08;101225.84;5168771;28;20025;-90
2023/05/23 03:17:56;;;;;;;1.08;1.02;;;;;;;16.26;69.66;101228.47;5185343;28;20030;-88
2023/05/23 03:20:46;;;;;;;7.75;2.08;;;;;;;16.42;68.80;101233.94;5181652;28;20467;-89
2023/05/23 03:23:37;;;;;;;0.73;0.73;;;;;;;16.29;69.60;101236.25;5183607;28;20041;-89
2023/05/23 03:26:28;;;;;;;0.70;0.70;;;;;;;16.22;69.67;101235.66;5188067;28;20249;-90
2023/05/23 03:29:19;;;;;;;0.90;0.88;;;;;;;15.97;71.29;101242.00;5185552;28;20033;-89
2023/05/23 03:32:09;;;;;;;2.67;1.63;;;;;;;15.82;72.29;101240.81;5170654;28;20033;-89
2023/05/23 03:35:00;;;;;;;0.85;0.85;;;;;;;15.86;72.05;101236.28;5177493;28;20580;-89
2023/05/23 03:37:51;;;;;;;0.80;0.80;;;;;;;15.70;73.25;101236.88;5171850;28;20037;-89
2023/05/23 03:40:42;;;;;;;0.90;0.90;;;;;;;16.11;70.47;101224.66;5171177;28;20485;-89
2023/05/23 03:43:32;;;;;;;0.82;0.82;;;;;;;16.01;71.37;101229.50;5175999;28;20089;-89
2023/05/23 03:46:23;;;;;;;0.45;0.45;;;;;;;15.72;72.78;101235.03;5177445;28;20031;-90
2023/05/23 03:49:14;;;;;;;0.30;0.30;;;;;;;15.52;73.54;101243.78;5180965;28;20061;-90
2023/05/23 03:52:05;;;;;;;1.08;1.00;;;;;;;15.78;72.34;101241.88;5183846;28;20706;-89
2023/05/23 03:54:57;;;;;;;0.65;0.65;;;;;;;15.37;74.33;101242.56;5179408;28;20018;-89
2023/05/23 03:57:49;;;;;;;1.27;1.20;;;;;;;15.38;74.43;101246.06;5201832;28;20033;-89
2023/05/23 04:00:40;;;;;;;0.70;0.70;;;;;;;15.55;73.58;101250.72;5201704;28;20029;-89
2023/05/23 04:03:31;;;;;;;0.65;0.65;;;;;;;15.55;73.58;101245.41;5170150;28;20064;-89
2023/05/23 04:06:22;;;;;;;0.57;0.57;;;;;;;15.68;72.14;101254.59;5189527;28;20049;-90
2023/05/23 04:09:13;;;;;;;0.93;0.93;;;;;;;15.86;71.03;101247.75;5194207;28;20017;-90
2023/05/23 04:12:04;;;;;;;0.30;0.30;;;;;;;15.63;72.63;101261.84;5184090;28;20037;-89
2023/05/23 04:14:56;;;;;;;0.30;0.30;;;;;;;15.76;72.06;101256.94;5171175;28;20036;-89
2023/05/23 04:17:47;;;;;;;0.63;0.63;;;;;;;15.95;70.46;101250.94;5198614;28;20114;-89
2023/05/23 04:20:38;;;;;;;0.30;0.30;;;;;;;15.58;73.18;101261.16;5172606;28;20029;-89
2023/05/23 04:23:28;;;;;;;0.40;0.40;;;;;;;15.35;73.72;101260.28;5184874;28;20125;-90
2023/05/23 04:26:19;;;;;;;0.70;0.70;;;;;;;15.46;73.06;101265.13;5183302;28;20057;-89
2023/05/23 04:29:11;;;;;;;0.55;0.55;;;;;;;15.49;72.88;101267.69;5189477;28;20029;-89
2023/05/23 04:32:01;;;;;;;0.60;0.60;;;;;;;15.46;73.18;101274.88;5186518;28;20029;-89
2023/05/23 04:34:52;;;;;;;1.88;0.68;;;;;;;15.53;73.07;101271.06;5201390;28;20121;-90
2023/05/23 04:37:44;;;;;;;0.40;0.40;;;;;;;15.72;72.26;101272.06;5175378;28;20029;-89
2023/05/23 04:40:35;;;;;;;2.30;1.30;;;;;;;16.00;70.17;101270.97;5183364;28;20107;-89
2023/05/23 04:43:28;;;;;;;0.75;0.75;;;;;;;15.71;72.45;101280.91;5188665;28;20141;-89
2023/05/23 04:46:25;;;;;;;1.00;1.00;;;;;;;15.69;72.00;101276.63;5204705;28;20029;-89
2023/05/23 04:49:15;;;;;;;1.02;1.02;;;;;;;15.47;73.10;101279.25;5186020;28;20100;-89
2023/05/23 04:52:06;;;;;;;3.20;1.45;;;;;;;15.59;72.56;101281.38;5174839;28;20079;-89
2023/05/23 04:54:57;;;;;;;0.30;0.30;;;;;;;15.47;73.93;101287.19;5182684;28;20092;-90
2023/05/23 04:57:48;;;;;;;3.65;0.95;;;;;;;15.34;73.86;101284.97;5184726;28;20120;-89
2023/05/23 05:00:39;;;;;;;1.50;1.40;;;;;;;15.49;73.10;101294.13;5188344;28;20040;-87
2023/05/23 05:03:30;;;;;;;0.70;0.70;;;;;;;15.29;74.32;101291.38;5184141;28;20365;-86
2023/05/23 05:06:22;;;;;;;0.60;0.60;;;;;;;14.99;76.07;101287.19;5200214;28;20132;-89
2023/05/23 05:09:12;;;;;;;1.55;1.00;;;;;;;15.06;75.82;101285.16;5180727;28;20029;-89
2023/05/23 05:12:03;;;;;;;0.68;0.68;;;;;;;15.19;75.07;101282.94;5169557;28;20595;-87
2023/05/23 05:14:54;;;;;;;0.63;0.63;;;;;;;15.35;73.76;101292.00;5180844;28;20030;-87
2023/05/23 05:17:45;;;;;;;0.30;0.30;;;;;;;15.52;72.86;101291.38;5172167;28;20084;-88
2023/05/23 05:20:36;;;;;;;1.27;0.60;;;;;;;15.25;74.88;101291.50;5188530;28;20432;-88
2023/05/23 05:23:29;;;;;;;0.43;0.43;;;;;;;15.31;74.57;101292.16;5170881;28;20075;-87
2023/05/23 05:26:20;;;;;;;0.75;0.75;;;;;;;15.19;75.33;101298.78;5171281;28;20382;-86
2023/05/23 05:29:12;;;;;;;0.80;0.80;;;;;;;15.17;75.07;101300.63;5202881;28;20025;-87
2023/05/23 05:32:03;;;;;;;0.60;0.60;;;;;;;15.36;74.37;101301.66;5171537;28;20576;-88
2023/05/23 05:34:53;;;;;;;0.68;0.68;;;;;;;15.03;76.35;101315.22;5184709;28;20041;-87
2023/05/23 05:37:44;;;;;;;3.00;1.20;;;;;;;15.04;76.43;101311.66;5176899;28;20556;-87
2023/05/23 05:40:35;;;;;;;2.60;1.45;;;;;;;14.98;76.40;101317.16;5188587;28;20124;-87
2023/05/23 05:43:26;;;;;;;0.52;0.50;;;;;;;15.02;76.63;101318.75;5193910;28;20092;-87
2023/05/23 05:46:16;;;;;;;1.42;1.33;;;;;;;14.94;76.44;101328.75;5215661;28;20025;-87
2023/05/23 05:49:07;;;;;;;1.40;1.02;;;;;;;15.33;74.42;101320.28;5191220;28;20104;-88
2023/05/23 05:51:58;;;;;;;0.90;0.90;;;;;;;14.92;76.79;101320.88;5197549;28;20041;-87
2023/05/23 05:54:49;;;;;;;4.35;1.55;;;;;;;15.21;75.17;101323.38;5194589;28;20106;-87
2023/05/23 05:57:40;;;;;;;1.00;0.75;;;;;;;14.94;76.98;101326.97;5198335;28;20037;-87
2023/05/23 06:00:31;;;;;;;1.50;1.30;;;;;;;15.03;76.75;101332.84;5175701;28;20127;-87
2023/05/23 06:03:23;;;;;;;1.17;1.08;;;;;;;15.28;74.80;101330.16;5173375;28;20038;-87
2023/05/23 06:06:14;;;;;;;1.00;0.75;;;;;;;15.09;76.07;101330.84;5189326;28;20176;-88
2023/05/23 06:09:04;;;;;;;7.57;0.63;;;;;;;15.02;76.50;101339.91;5184953;28;20060;-88
2023/05/23 06:11:55;;;;;;;1.38;1.27;;;;;;;14.91;77.14;101328.88;5172243;28;20404;-88
2023/05/23 06:14:46;;;;;;;1.13;1.02;;;;;;;15.01;77.08;101332.03;5182918;28;21194;-87
2023/05/23 06:17:36;;;;;;;1.70;1.60;;;;;;;15.06;76.54;101340.66;5172667;28;20034;-88
2023/05/23 06:20:27;;;;;;;2.60;1.20;;;;;;;15.27;75.02;101333.72;5175336;28;20103;-88
2023/05/23 06:23:18;;;;;;;0.68;0.68;;;;;;;15.45;74.25;101333.97;5185263;28;20049;-88
2023/05/23 06:26:09;;;;;;;1.05;1.02;;;;;;;15.39;74.88;101338.56;5186101;28;20021;-87
2023/05/23 06:29:00;;;;;;;0.30;0.30;;;;;;;15.52;74.18;101344.25;5188904;28;20418;-88
2023/05/23 06:31:51;;;;;;;1.38;1.30;;;;;;;15.51;74.01;101345.19;5188781;28;20029;-88
2023/05/23 06:34:41;;;;;;;0.75;0.75;;;;;;;15.77;72.70;101345.09;5173595;28;20029;-88
2023/05/23 06:37:33;;;;;;;0.90;0.40;;;;;;;15.43;74.02;101350.75;5182411;28;20030;-88
2023/05/23 06:40:24;;;;;;;0.55;0.55;;;;;;;15.29;74.64;101355.69;5183806;28;20472;-88
2023/05/23 06:43:15;;;;;;;0.32;0.32;;;;;;;15.48;73.24;101352.38;5187162;28;20133;-88
2023/05/23 06:46:06;;;;;;;0.30;0.30;;;;;;;15.33;73.61;101354.63;5198319;28;20844;-88
2023/05/23 06:48:57;;;;;;;1.67;1.52;;;;;;;15.53;72.78;101360.97;5170028;28;20018;-89
2023/05/23 06:51:47;;;;;;;0.50;0.50;;;;;;;15.60;72.49;101356.34;5175353;28;20088;-87
2023/05/23 06:54:38;;;;;;;0.65;0.65;;;;;;;15.80;71.29;101363.50;5182396;28;20033;-87
2023/05/23 06:57:29;;;;;;;1.90;0.80;;;;;;;15.48;72.84;101370.88;5181630;28;20071;-88
2023/05/23 07:00:20;;;;;;;0.30;0.30;;;;;;;15.43;72.83;101377.19;5184758;28;20030;-88
2023/05/23 07:03:11;;;;;;;0.40;0.40;;;;;;;15.49;72.40;101380.53;5169485;28;20049;-89
2023/05/23 07:06:01;;;;;;;0.50;0.50;;;;;;;15.50;72.79;101383.13;5184277;28;20119;-87
2023/05/23 07:08:53;;;;;;;0.50;0.50;;;;;;;15.72;71.64;101385.81;5178508;28;20032;-87
2023/05/23 07:11:44;;;;;;;0.63;0.52;;;;;;;15.73;71.41;101390.19;5195149;28;20176;-87
2023/05/23 07:14:36;;;;;;;1.02;0.93;;;;;;;15.60;71.35;101388.06;5184066;28;20080;-87
2023/05/23 07:17:29;;;;;;;0.60;0.60;;;;;;;15.50;72.58;101385.75;5180883;28;20421;-88
2023/05/23 07:20:19;;;;;;;1.20;0.75;;;;;;;15.35;73.44;101387.19;5186157;28;20025;-87
2023/05/23 07:23:10;;;;;;;0.57;0.57;;;;;;;15.17;74.64;101393.13;5168511;28;20104;-87
2023/05/23 07:26:01;;;;;;;0.43;0.43;;;;;;;15.45;73.23;101397.44;5174517;28;20089;-88
2023/05/23 07:28:52;;;;;;;1.30;1.17;;;;;;;15.49;73.56;101401.69;5172546;28;20065;-87
2023/05/23 07:31:43;;;;;;;0.40;0.40;;;;;;;15.48;73.78;101399.97;5177634;28;20042;-87
2023/05/23 07:34:34;;;;;;;0.68;0.68;;;;;;;15.33;75.14;101404.88;5180451;28;20029;-88
2023/05/23 07:37:26;;;;;;;1.95;1.42;;;;;;;15.29;75.25;101399.78;5187073;28;20112;-88
2023/05/23 07:40:17;;;;;;;3.75;1.25;;;;;;;15.39;75.41;101402.03;5183457;28;20029;-88
2023/05/23 07:43:07;;;;;;;5.57;2.05;;;;;;;15.45;75.12;101400.94;5179464;28;20041;-88
2023/05/23 07:45:58;;;;;;;0.30;0.30;;;;;;;15.33;75.84;101407.53;5173208;28;20037;-87
2023/05/23 07:48:49;;;;;;;1.98;1.25;;;;;;;15.17;76.88;101401.06;5173453;28;20068;-87
2023/05/23 07:51:40;;;;;;;0.95;0.95;;;;;;;14.92;77.78;101407.19;5182230;28;20313;-87
2023/05/23 07:54:31;;;;;;;0.90;0.82;;;;;;;14.88;78.32;101405.59;5169672;28;20080;-87
2023/05/23 07:57:23;;;;;;;3.58;2.85;;;;;;;14.99;77.31;101411.38;5167584;28;20040;-87
2023/05/23 08:00:14;;;;;;;1.75;1.65;;;;;;;15.05;76.54;101423.50;5178598;28;20041;-89
2023/05/23 08:03:05;;;;;;;1.85;1.25;;;;;;;14.83;77.85;101423.38;5195607;28;20037;-88
2023/05/23 08:05:56;;;;;;;3.13;1.83;;;;;;;14.88;77.45;101424.09;5175663;28;20133;-88
2023/05/23 08:08:46;;;;;;;0.85;0.85;;;;;;;15.28;75.42;101425.34;5177076;28;20037;-88
2023/05/23 08:11:37;;;;;;;2.42;2.15;;;;;;;15.08;77.23;101437.47;5170753;28;20254;-88
2023/05/23 08:14:28;;;;;;;0.98;0.95;;;;;;;14.83;78.96;101428.69;5199098;28;20523;-89
2023/05/23 08:17:19;;;;;;;1.75;1.35;;;;;;;14.85;77.63;101437.38;5171112;28;20852;-88
2023/05/23 08:20:11;;;;;;;0.95;0.88;;;;;;;15.06;76.70;101427.88;5170865;28;20087;-88
2023/05/23 08:23:02;;;;;;;1.67;1.58;;;;;;;15.22;76.05;101446.72;5171329;28;20030;-88
2023/05/23 08:25:53;;;;;;;5.43;2.40;;;;;;;15.06;76.59;101436.69;5169030;28;20081;-89
2023/05/23 08:28:44;;;;;;;2.83;0.50;;;;;;;14.66;78.91;101440.66;5185344;28;20029;-87
2023/05/23 08:31:35;;;;;;;0.50;0.50;;;;;;;14.79;77.22;101449.91;5178050;28;20033;-88
2023/05/23 08:34:26;;;;;;;1.67;1.58;;;;;;;14.56;78.66;101449.75;5169798;28;20025;-89
2023/05/23 08:37:17;;;;;;;1.17;1.00;;;;;;;14.58;78.38;101453.22;5168000;28;20038;-88
2023/05/23 08:40:17;;;;;;;0.70;0.70;;;;;;;14.21;80.21;101447.31;5187590;28;20029;-88
2023/05/23 08:43:09;;;;;;;0.60;0.60;;;;;;;14.28;79.32;101447.97;5167231;28;20030;-89
2023/05/23 08:46:02;;;;;;;0.30;0.30;;;;;;;14.24;80.16;101456.91;5176846;28;20026;-88
2023/05/23 08:48:53;;;;;;;0.65;0.65;;;;;;;14.16;80.51;101463.31;5166141;28;20044;-88
2023/05/23 08:51:46;;;;;;;3.08;1.52;;;;;;;14.33;79.75;101462.75;5181774;28;20044;-88
2023/05/23 08:54:37;;;;;;;1.45;0.63;;;;;;;13.98;80.89;101471.75;5168921;28;20428;-88
2023/05/23 08:57:29;;;;;;;2.28;1.17;;;;;;;14.10;80.63;101471.38;5180000;28;20116;-88
2023/05/23 09:00:22;;;;;;;0.70;0.70;;;;;;;14.22;79.65;101477.22;5175751;28;20032;-87
2023/05/23 09:03:13;;;;;;;1.00;0.95;;;;;;;14.39;79.34;101476.69;5185561;28;20037;-87
2023/05/23 09:06:07;;;;;;;0.55;0.55;;;;;;;14.06;80.96;101480.31;5173967;28;20034;-88
2023/05/23 09:08:58;;;;;;;1.50;1.40;;;;;;;14.23;79.87;101487.72;5169738;28;20667;-87
2023/05/23 09:11:50;;;;;;;0.70;0.70;;;;;;;14.23;79.10;101490.34;5188613;28;20030;-88
2023/05/23 09:14:43;;;;;;;0.70;0.70;;;;;;;14.48;77.67;101482.56;5204638;28;20031;-88
2023/05/23 09:17:35;;;;;;;0.93;0.93;;;;;;;14.53;77.05;101495.63;5207677;28;20156;-88
2023/05/23 09:20:27;;;;;;;0.65;0.65;;;;;;;14.67;76.27;101507.53;5179888;28;20037;-88
2023/05/23 09:23:18;;;;;;;0.77;0.77;;;;;;;14.68;75.55;101504.84;5192224;28;20060;-88
2023/05/23 09:26:12;;;;;;;0.75;0.75;;;;;;;15.00;73.78;101499.44;5198859;28;20404;-88
2023/05/23 09:29:06;;;;;;;0.60;0.60;;;;;;;14.99;73.45;101513.56;5173459;28;20044;-87
2023/05/23 09:32:14;;;;;;;0.85;0.85;;;;;;;15.01;73.30;101504.66;5196850;28;20033;-88
2023/05/23 09:35:06;;;;;;;0.75;0.50;;;;;;;15.04;72.33;101514.28;5191708;28;20063;-89
2023/05/23 09:38:00;;;;;;;0.43;0.43;;;;;;;14.98;73.46;101515.34;5191425;28;20058;-88
2023/05/23 09:40:54;;;;;;;0.80;0.77;;;;;;;14.88;74.74;101516.56;5183623;28;20108;-88
2023/05/23 09:43:53;;;;;;;0.80;0.73;;;;;;;14.93;74.40;101517.25;5170356;28;20044;-89
2023/05/23 09:46:51;;;;;;;0.75;0.75;;;;;;;14.76;74.71;101523.09;5170923;28;20038;-89
2023/05/23 09:49:46;;;;;;;1.75;1.65;;;;;;;14.74;74.89;101525.81;5202024;28;20073;-88
2023/05/23 09:52:37;;;;;;;1.13;1.02;;;;;;;14.92;73.84;101532.25;5188490;28;20037;-88
2023/05/23 09:55:28;;;;;;;0.85;0.85;;;;;;;14.74;73.51;101532.84;5173971;28;20030;-89
2023/05/23 09:58:21;;;;;;;0.22;0.22;;;;;;;14.97;72.01;101542.69;5201705;28;20045;-88
2023/05/23 10:01:13;;;;;;;4.35;2.10;;;;;;;14.86;71.40;101560.66;5177284;28;20044;-88
2023/05/23 10:04:04;;;;;;;0.70;0.68;;;;;;;14.75;70.74;101543.34;5173662;28;20042;-88
2023/05/23 10:07:03;;;;;;;0.65;0.65;;;;;;;14.83;69.83;101544.91;5191579;28;20040;-89
2023/05/23 10:10:02;;;;;;;0.82;0.82;;;;;;;14.56;69.20;101543.03;5184076;28;20029;-88
2023/05/23 10:12:56;;;;;;;0.95;0.95;;;;;;;14.72;69.73;101538.19;5177650;28;20041;-88
2023/05/23 10:15:48;;;;;;;0.52;0.52;;;;;;;15.09;69.54;101547.56;5174605;28;20122;-88
2023/05/23 10:18:43;;;;;;;2.70;1.40;;;;;;;15.03;68.53;101539.84;5189206;28;20052;-89
2023/05/23 10:21:43;;;;;;;0.88;0.88;;;;;;;14.93;67.33;101536.63;5190583;28;20350;-88
2023/05/23 10:24:35;;;;;;;1.10;1.10;;;;;;;15.14;66.42;101549.19;5182784;28;20313;-89
2023/05/23 10:27:26;;;;;;;0.30;0.30;;;;;;;15.18;66.65;101548.16;5166778;28;20053;-89
2023/05/23 10:30:17;;;;;;;1.10;1.10;;;;;;;15.14;65.86;101551.84;5201395;28;20025;-89
2023/05/23 10:33:11;;;;;;;4.70;1.05;;;;;;;15.33;65.55;101554.72;5181107;28;20670;-89
2023/05/23 10:36:11;;;;;;;0.47;0.47;;;;;;;15.17;65.58;101555.25;5186275;28;20539;-88
2023/05/23 10:39:21;;;;;;;0.60;0.60;;;;;;;15.11;64.59;101556.31;5193180;28;20043;-88
2023/05/23 10:42:23;;;;;;;0.80;0.80;;;;;;;15.42;64.66;101560.56;5171092;28;20040;-89
2023/05/23 10:45:18;;;;;;;0.47;0.47;;;;;;;15.55;64.75;101558.38;5173622;28;20112;-88
2023/05/23 10:48:27;;;;;;;0.50;0.50;;;;;;;15.45;63.95;101549.03;5173583;28;20042;-88
2023/05/23 10:51:20;;;;;;;0.47;0.47;;;;;;;15.62;64.40;101551.09;5173611;28;20043;-88
2023/05/23 10:54:11;;;;;;;1.77;1.20;;;;;;;15.58;61.99;101552.97;5168810;28;20025;-88
2023/05/23 10:57:04;;;;;;;1.65;0.77;;;;;;;15.61;61.91;101549.34;5185470;28;20283;-88
2023/05/23 10:59:54;;;;;;;1.08;0.65;;;;;;;15.78;61.11;101551.44;5169122;28;20140;-87
2023/05/23 11:02:54;;;;;;;0.95;0.85;;;;;;;15.82;61.07;101552.19;5171282;28;20069;-88
2023/05/23 11:05:52;;;;;;;0.60;0.60;;;;;;;15.79;60.95;101546.97;5182268;28;20060;-88
2023/05/23 11:08:44;;;;;;;1.38;1.05;;;;;;;15.89;60.67;101553.72;5188717;28;20109;-88
2023/05/23 11:11:47;;;;;;;0.90;0.90;;;;;;;16.02;60.90;101549.69;5181708;28;20494;-88
2023/05/23 11:14:38;;;;;;;0.68;0.68;;;;;;;16.06;60.83;101542.50;5180933;28;20036;-88
2023/05/23 11:17:33;;;;;;;1.08;0.98;;;;;;;16.13;60.53;101546.63;5177667;28;20060;-89
2023/05/23 11:20:27;;;;;;;0.43;0.43;;;;;;;16.14;59.01;101544.88;5178452;28;20037;-87
2023/05/23 11:23:18;;;;;;;0.65;0.65;;;;;;;16.11;59.65;101545.84;5191867;28;20039;-88
2023/05/23 11:26:30;;;;;;;1.27;1.25;;;;;;;16.33;60.92;101547.69;5202654;28;20033;-88
2023/05/23 11:29:21;;;;;;;0.40;0.40;;;;;;;16.36;59.39;101542.28;5199396;28;20146;-88
2023/05/23 11:32:12;;;;;;;0.65;0.65;;;;;;;16.52;58.90;101554.00;5194048;28;20013;-89
2023/05/23 11:35:05;;;;;;;0.50;0.50;;;;;;;16.53;59.41;101542.47;5195603;28;20041;-89
2023/05/23 11:37:56;;;;;;;0.73;0.73;;;;;;;16.59;58.67;101544.00;5202414;28;20033;-88
2023/05/23 11:40:47;;;;;;;0.88;0.88;;;;;;;16.59;58.65;101546.66;5190701;28;20044;-88
2023/05/23 11:43:49;;;;;;;0.73;0.73;;;;;;;16.54;59.10;101559.22;5175349;28;20030;-89
2023/05/23 11:46:40;;;;;;;0.38;0.35;;;;;;;16.71;58.64;101560.38;5189972;28;20041;-89
2023/05/23 11:49:33;;;;;;;2.25;1.67;;;;;;;16.73;58.84;101566.47;5177631;28;20036;-87
2023/05/23 11:52:31;;;;;;;0.35;0.35;;;;;;;16.63;57.44;101558.00;5209674;28;20616;-88
2023/05/23 11:55:22;;;;;;;0.50;0.50;;;;;;;16.80;56.65;101552.91;5188700;28;20057;-87
2023/05/23 11:58:13;;;;;;;0.40;0.40;;;;;;;16.84;55.71;101554.50;5195527;28;20037;-88
2023/05/23 12:01:08;;;;;;;0.25;0.25;;;;;;;17.02;56.87;101545.91;5176960;28;20035;-88
2023/05/23 12:03:59;;;;;;;0.28;0.28;;;;;;;17.03;55.64;101550.28;5175530;28;20584;-87
2023/05/23 12:06:50;;;;;;;0.43;0.43;;;;;;;17.14;55.95;101561.31;5188454;28;20034;-88
2023/05/23 12:09:42;;;;;;;0.68;0.68;;;;;;;17.15;54.32;101560.38;5175138;28;20084;-87
2023/05/23 12:12:34;;;;;;;0.90;0.90;;;;;;;17.11;54.16;101559.63;5176961;28;20037;-89
2023/05/23 12:15:28;;;;;;;2.53;1.48;;;;;;;17.13;54.53;101559.59;5167334;28;20037;-88
2023/05/23 12:18:19;;;;;;;0.57;0.57;;;;;;;17.21;55.05;101562.78;5186075;28;20042;-87
2023/05/23 12:21:10;;;;;;;0.60;0.60;;;;;;;17.22;53.85;101563.63;5190416;28;20117;-88
2023/05/23 12:24:19;;;;;;;0.28;0.28;;;;;;;17.16;53.74;101570.03;5215324;28;20060;-89
2023/05/23 12:27:10;;;;;;;2.60;1.58;;;;;;;17.48;54.10;101575.78;5195503;28;20040;-89
2023/05/23 12:30:17;;;;;;;0.47;0.47;;;;;;;17.37;53.54;101567.44;5200683;28;20104;-88
2023/05/23 12:33:08;;;;;;;0.30;0.30;;;;;;;17.20;52.91;101568.13;5196094;28;20025;-87
2023/05/23 12:35:59;;;;;;;0.47;0.47;;;;;;;17.39;51.43;101560.28;5209116;28;20032;-88
2023/05/23 12:38:50;;;;;;;1.10;1.05;;;;;;;17.41;51.48;101561.06;5190471;28;20043;-88
2023/05/23 12:41:42;;;;;;;2.40;0.73;;;;;;;17.51;50.38;101554.44;5177686;28;20736;-87
2023/05/23 12:44:33;;;;;;;0.30;0.30;;;;;;;17.62;51.86;101560.16;5194954;28;20473;-89
2023/05/23 12:47:23;;;;;;;0.40;0.40;;;;;;;17.69;51.56;101549.25;5203852;28;20033;-89
2023/05/23 12:50:14;;;;;;;0.40;0.40;;;;;;;17.62;50.83;101546.91;5180906;28;20029;-88
2023/05/23 12:53:05;;;;;;;0.50;0.50;;;;;;;17.76;49.80;101548.94;5184297;28;20033;-88
2023/05/23 12:55:56;;;;;;;0.63;0.63;;;;;;;17.91;48.07;101558.00;5185110;28;20058;-89
2023/05/23 12:58:47;;;;;;;0.30;0.30;;;;;;;17.84;48.25;101542.44;5174384;28;20038;-88
2023/05/23 13:01:38;;;;;;;4.05;1.45;;;;;;;18.08;49.72;101537.81;5182999;28;20037;-88
2023/05/23 13:04:29;;;;;;;3.08;1.60;;;;;;;18.08;48.01;101545.78;5178896;28;20026;-89
2023/05/23 13:07:21;;;;;;;1.85;1.05;;;;;;;18.13;47.54;101551.75;5188743;28;20512;-87
2023/05/23 13:10:12;;;;;;;2.80;1.00;;;;;;;18.32;48.84;101551.78;5184184;28;20028;-88
2023/05/23 13:13:04;;;;;;;2.20;0.82;;;;;;;18.30;48.78;101550.13;5174317;28;20041;-88
2023/05/23 13:15:55;;;;;;;2.55;0.60;;;;;;;18.29;48.74;101556.38;5168414;28;20138;-89
2023/05/23 13:18:46;;;;;;;0.30;0.30;;;;;;;18.41;46.45;101555.78;5198086;28;20366;-88
2023/05/23 13:21:37;;;;;;;0.65;0.65;;;;;;;18.23;45.25;101550.38;5187244;28;20038;-88